createdAt,value
2016-12-23T00:00:30.082Z,4.6
2016-12-23T00:01:36.103Z,4.7
2016-12-23T00:02:42.120Z,4.6
2016-12-23T00:03:48.134Z,4.7
2016-12-23T00:04:54.162Z,4.7
2016-12-23T00:06:00.186Z,4.6
2016-12-23T00:07:06.202Z,4.7
2016-12-23T00:08:12.234Z,4.7
2016-12-23T00:09:18.273Z,4.7
2016-12-23T00:10:24.288Z,4.7
2016-12-23T00:11:30.299Z,4.7
2016-12-23T00:12:36.325Z,4.7
2016-12-23T00:13:42.371Z,4.8
2016-12-23T00:14:48.419Z,4.8
2016-12-23T00:15:54.443Z,4.8
2016-12-23T00:17:00.465Z,4.8
2016-12-23T00:18:06.481Z,4.8
2016-12-23T00:19:12.515Z,4.7
2016-12-23T00:20:18.532Z,4.6
2016-12-23T00:21:24.559Z,4.7
2016-12-23T00:22:30.570Z,4.7
2016-12-23T00:23:36.596Z,4.8
2016-12-23T00:24:42.618Z,4.9
2016-12-23T00:25:48.632Z,4.8
2016-12-23T00:26:54.649Z,4.7
2016-12-23T00:28:00.709Z,4.8
2016-12-23T00:29:06.735Z,4.9
2016-12-23T00:30:12.760Z,4.8
2016-12-23T00:31:18.799Z,4.7
2016-12-23T00:32:24.855Z,4.8
2016-12-23T00:33:30.887Z,4.8
2016-12-23T00:34:36.909Z,4.8
2016-12-23T00:35:42.959Z,4.7
2016-12-23T00:36:48.955Z,4.8
2016-12-23T00:37:54.970Z,4.8
2016-12-23T00:39:00.993Z,4.7
2016-12-23T00:40:07.023Z,4.8
2016-12-23T00:41:13.045Z,4.8
2016-12-23T00:42:19.057Z,4.8
2016-12-23T00:43:25.077Z,4.8
2016-12-23T00:44:31.097Z,4.9
2016-12-23T00:45:37.121Z,4.8
2016-12-23T00:46:43.139Z,4.8
2016-12-23T00:47:49.156Z,4.8
2016-12-23T00:48:55.187Z,4.8
2016-12-23T00:50:01.204Z,4.8
2016-12-23T00:51:07.220Z,4.9
2016-12-23T00:52:13.241Z,4.9
2016-12-23T00:53:19.258Z,4.9
2016-12-23T00:54:25.288Z,4.9
2016-12-23T00:55:31.312Z,4.9
2016-12-23T00:56:37.334Z,4.9
2016-12-23T00:57:43.353Z,4.9
2016-12-23T00:58:49.369Z,4.9
2016-12-23T00:59:55.392Z,4.9
2016-12-23T01:01:01.415Z,5
2016-12-23T01:02:07.444Z,4.9
2016-12-23T01:03:13.459Z,4.9
2016-12-23T01:04:19.481Z,5
2016-12-23T01:05:25.499Z,5
2016-12-23T01:06:31.524Z,5.1
2016-12-23T01:07:37.554Z,5.1
2016-12-23T01:08:43.574Z,5
2016-12-23T01:09:49.595Z,5.1
2016-12-23T01:10:55.616Z,5
2016-12-23T01:12:01.640Z,5.1
2016-12-23T01:13:07.653Z,5
2016-12-23T01:14:13.674Z,5
2016-12-23T01:15:19.694Z,5
2016-12-23T01:16:25.715Z,5.1
2016-12-23T01:17:31.782Z,5.1
2016-12-23T01:18:37.798Z,5
2016-12-23T01:19:43.817Z,5
2016-12-23T01:20:49.836Z,4.9
2016-12-23T01:21:55.854Z,5
2016-12-23T01:23:01.879Z,5
2016-12-23T01:24:07.901Z,5
2016-12-23T01:25:13.926Z,5.1
2016-12-23T01:26:19.944Z,5.1
2016-12-23T01:27:25.977Z,5
2016-12-23T01:28:31.993Z,5
2016-12-23T01:29:38.019Z,5
2016-12-23T01:30:44.051Z,5
2016-12-23T01:31:50.070Z,5
2016-12-23T01:32:56.101Z,5.1
2016-12-23T01:34:02.126Z,5
2016-12-23T01:35:08.137Z,4.9
2016-12-23T01:36:14.167Z,4.9
2016-12-23T01:37:20.191Z,5
2016-12-23T01:38:26.215Z,5
2016-12-23T01:39:32.227Z,5
2016-12-23T01:40:38.260Z,4.9
2016-12-23T01:41:44.275Z,4.9
2016-12-23T01:42:50.299Z,4.9
2016-12-23T01:43:56.309Z,4.8
2016-12-23T01:45:02.332Z,4.9
2016-12-23T01:46:08.351Z,4.9
2016-12-23T01:47:14.369Z,4.9
2016-12-23T01:48:20.392Z,4.9
2016-12-23T01:49:26.416Z,4.9
2016-12-23T01:50:32.434Z,4.9
2016-12-23T01:51:38.450Z,4.9
2016-12-23T01:52:44.482Z,4.9
2016-12-23T01:53:50.504Z,5
2016-12-23T01:54:56.526Z,5
2016-12-23T01:56:02.545Z,5
2016-12-23T01:57:08.571Z,4.9
2016-12-23T01:58:14.658Z,4.9
2016-12-23T01:59:20.684Z,5
2016-12-23T02:00:26.642Z,5
2016-12-23T02:01:32.671Z,4.9
2016-12-23T02:02:38.689Z,4.9
2016-12-23T02:03:44.712Z,5
2016-12-23T02:04:50.736Z,5
2016-12-23T02:05:56.748Z,4.9
2016-12-23T02:07:02.773Z,4.9
2016-12-23T02:08:08.791Z,5
2016-12-23T02:09:14.820Z,5
2016-12-23T02:10:20.831Z,5.1
2016-12-23T02:11:26.857Z,5.1
2016-12-23T02:12:32.895Z,5
2016-12-23T02:13:38.929Z,4.9
2016-12-23T02:14:44.950Z,4.9
2016-12-23T02:15:50.968Z,4.9
2016-12-23T02:16:56.991Z,4.9
2016-12-23T02:18:03.090Z,4.9
2016-12-23T02:19:09.044Z,4.9
2016-12-23T02:20:15.066Z,4.9
2016-12-23T02:21:21.120Z,4.9
2016-12-23T02:22:27.116Z,4.8
2016-12-23T02:23:33.128Z,5
2016-12-23T02:24:39.146Z,4.9
2016-12-23T02:25:45.170Z,4.9
2016-12-23T02:26:51.193Z,4.9
2016-12-23T02:27:57.219Z,4.8
2016-12-23T02:29:03.245Z,4.8
2016-12-23T02:30:09.270Z,4.9
2016-12-23T02:31:15.294Z,4.9
2016-12-23T02:32:21.312Z,4.9
2016-12-23T02:33:27.320Z,4.9
2016-12-23T02:34:33.339Z,4.9
2016-12-23T02:35:39.359Z,4.9
2016-12-23T02:36:45.376Z,4.9
2016-12-23T02:37:51.395Z,5
2016-12-23T02:38:57.433Z,4.9
2016-12-23T02:40:03.451Z,5
2016-12-23T02:41:09.475Z,5.1
2016-12-23T02:42:15.484Z,5
2016-12-23T02:43:21.508Z,5
2016-12-23T02:44:27.527Z,5
2016-12-23T02:45:33.548Z,5.1
2016-12-23T02:46:39.575Z,5.2
2016-12-23T02:47:45.600Z,5.1
2016-12-23T02:48:51.654Z,5
2016-12-23T02:49:57.722Z,4.9
2016-12-23T02:51:03.748Z,5
2016-12-23T02:52:09.767Z,5
2016-12-23T02:53:15.783Z,5.1
2016-12-23T02:54:21.806Z,5.1
2016-12-23T02:55:27.831Z,5.1
2016-12-23T02:56:33.856Z,5.1
2016-12-23T02:57:39.872Z,5.1
2016-12-23T02:58:45.892Z,5.1
2016-12-23T02:59:51.910Z,5
2016-12-23T03:00:57.929Z,5.1
2016-12-23T03:02:03.941Z,5
2016-12-23T03:03:09.969Z,5.1
2016-12-23T03:04:15.999Z,5
2016-12-23T03:05:22.018Z,5
2016-12-23T03:06:28.039Z,5
2016-12-23T03:07:34.064Z,5
2016-12-23T03:08:40.092Z,4.9
2016-12-23T03:09:46.152Z,4.9
2016-12-23T03:10:52.170Z,4.8
2016-12-23T03:11:58.195Z,4.9
2016-12-23T03:13:04.235Z,5
2016-12-23T03:14:10.263Z,5.1
2016-12-23T03:15:16.293Z,5
2016-12-23T03:16:22.371Z,4.9
2016-12-23T03:17:28.334Z,4.9
2016-12-23T03:18:34.340Z,4.9
2016-12-23T03:19:40.362Z,4.8
2016-12-23T03:20:46.377Z,4.8
2016-12-23T03:21:52.399Z,4.9
2016-12-23T03:22:58.412Z,4.9
2016-12-23T03:24:04.433Z,4.9
2016-12-23T03:25:10.459Z,4.9
2016-12-23T03:26:16.473Z,4.8
2016-12-23T03:27:22.497Z,4.8
2016-12-23T03:28:28.520Z,4.8
2016-12-23T03:29:34.545Z,4.8
2016-12-23T03:30:40.555Z,4.9
2016-12-23T03:31:46.579Z,4.9
2016-12-23T03:32:52.605Z,5
2016-12-23T03:33:58.618Z,5
2016-12-23T03:35:04.632Z,5
2016-12-23T03:36:10.668Z,5
2016-12-23T03:37:16.694Z,5
2016-12-23T03:38:22.708Z,4.9
2016-12-23T03:39:28.727Z,4.9
2016-12-23T03:40:34.798Z,4.9
2016-12-23T03:41:40.790Z,5
2016-12-23T03:42:46.857Z,5
2016-12-23T03:43:52.879Z,5
2016-12-23T03:44:58.898Z,5
2016-12-23T03:46:04.913Z,5
2016-12-23T03:47:10.924Z,5.1
2016-12-23T03:48:16.948Z,5
2016-12-23T03:49:22.970Z,5
2016-12-23T03:50:28.996Z,5.1
2016-12-23T03:51:35.009Z,5.1
2016-12-23T03:52:41.034Z,5.1
2016-12-23T03:53:47.055Z,5
2016-12-23T03:54:53.078Z,5.1
2016-12-23T03:55:59.098Z,5.1
2016-12-23T03:57:05.122Z,5.1
2016-12-23T03:58:11.145Z,5.1
2016-12-23T03:59:17.166Z,5.1
2016-12-23T04:00:23.181Z,5.1
2016-12-23T04:01:29.194Z,5.1
2016-12-23T04:02:35.211Z,5.1
2016-12-23T04:03:41.235Z,5.1
2016-12-23T04:04:47.251Z,5.1
2016-12-23T04:05:53.274Z,5.1
2016-12-23T04:06:59.295Z,5
2016-12-23T04:08:05.334Z,5
2016-12-23T04:09:11.442Z,5.1
2016-12-23T04:10:17.394Z,5.1
2016-12-23T04:11:23.411Z,5.2
2016-12-23T04:12:29.426Z,5.2
2016-12-23T04:13:35.450Z,5.2
2016-12-23T04:14:41.475Z,5.1
2016-12-23T04:15:47.496Z,5.1
2016-12-23T04:16:53.513Z,5.2
2016-12-23T04:17:59.538Z,5.2
2016-12-23T04:19:05.561Z,5.1
2016-12-23T04:20:11.577Z,5.1
2016-12-23T04:21:17.586Z,5.2
2016-12-23T04:22:23.609Z,5.1
2016-12-23T04:23:29.636Z,5.2
2016-12-23T04:24:35.660Z,5.2
2016-12-23T04:25:41.673Z,5.3
2016-12-23T04:26:47.688Z,5.4
2016-12-23T04:27:53.709Z,5.4
2016-12-23T04:28:59.740Z,5.4
2016-12-23T04:30:05.763Z,5.3
2016-12-23T04:31:11.789Z,5.3
2016-12-23T04:32:17.851Z,5.3
2016-12-23T04:33:23.868Z,5.3
2016-12-23T04:34:29.892Z,5.3
2016-12-23T04:35:35.913Z,5.3
2016-12-23T04:36:41.936Z,5.3
2016-12-23T04:37:47.973Z,5.4
2016-12-23T04:38:53.992Z,5.4
2016-12-23T04:40:00.011Z,5.3
2016-12-23T04:41:06.067Z,5.3
2016-12-23T04:42:12.053Z,5.3
2016-12-23T04:43:18.078Z,5.4
2016-12-23T04:44:24.103Z,5.3
2016-12-23T04:45:30.131Z,5.3
2016-12-23T04:46:36.139Z,5.3
2016-12-23T04:47:42.157Z,5.3
2016-12-23T04:48:48.175Z,5.3
2016-12-23T04:49:54.192Z,5.4
2016-12-23T04:51:00.210Z,5.4
2016-12-23T04:52:06.238Z,5.4
2016-12-23T04:53:12.261Z,5.4
2016-12-23T04:54:18.282Z,5.4
2016-12-23T04:55:24.303Z,5.4
2016-12-23T04:56:30.327Z,5.4
2016-12-23T04:57:36.348Z,5.4
2016-12-23T04:58:42.365Z,5.3
2016-12-23T04:59:48.389Z,5.4
2016-12-23T05:00:54.414Z,5.4
2016-12-23T05:02:00.434Z,5.5
2016-12-23T05:03:06.448Z,5.5
2016-12-23T05:04:12.472Z,5.6
2016-12-23T05:05:18.495Z,5.5
2016-12-23T05:06:24.522Z,5.4
2016-12-23T05:07:30.540Z,5.4
2016-12-23T05:08:36.562Z,5.5
2016-12-23T05:09:42.578Z,5.4
2016-12-23T05:10:48.601Z,5.4
2016-12-23T05:11:54.632Z,5.5
2016-12-23T05:13:00.651Z,5.5
2016-12-23T05:14:06.671Z,5.5
2016-12-23T05:15:12.684Z,5.5
2016-12-23T05:16:18.712Z,5.5
2016-12-23T05:17:24.729Z,5.5
2016-12-23T05:18:30.748Z,5.4
2016-12-23T05:19:36.772Z,5.5
2016-12-23T05:20:42.806Z,5.5
2016-12-23T05:21:48.816Z,5.5
2016-12-23T05:22:54.834Z,5.4
2016-12-23T05:24:00.850Z,5.5
2016-12-23T05:25:06.874Z,5.5
2016-12-23T05:26:12.896Z,5.5
2016-12-23T05:27:18.920Z,5.5
2016-12-23T05:28:24.943Z,5.6
2016-12-23T05:29:30.957Z,5.6
2016-12-23T05:30:36.984Z,5.5
2016-12-23T05:31:43.003Z,5.5
2016-12-23T05:32:49.029Z,5.6
2016-12-23T05:33:55.049Z,5.6
2016-12-23T05:35:01.068Z,5.6
2016-12-23T05:36:07.086Z,5.6
2016-12-23T05:37:13.115Z,5.6
2016-12-23T05:38:18.395Z,5.6
2016-12-23T05:39:24.418Z,5.7
2016-12-23T05:40:30.435Z,5.7
2016-12-23T05:41:36.463Z,5.7
2016-12-23T05:42:42.486Z,5.7
2016-12-23T05:43:48.499Z,5.7
2016-12-23T05:44:54.515Z,5.6
2016-12-23T05:46:00.544Z,5.6
2016-12-23T05:47:06.566Z,5.6
2016-12-23T05:48:12.593Z,5.7
2016-12-23T05:49:18.607Z,5.8
2016-12-23T05:50:24.628Z,5.7
2016-12-23T05:51:30.662Z,5.6
2016-12-23T05:52:36.679Z,5.6
2016-12-23T05:53:42.696Z,5.7
2016-12-23T05:54:48.714Z,5.7
2016-12-23T05:55:54.732Z,5.7
2016-12-23T05:57:00.761Z,5.8
2016-12-23T05:58:06.774Z,5.8
2016-12-23T05:59:12.794Z,5.8
2016-12-23T06:00:18.811Z,5.8
2016-12-23T06:01:24.826Z,5.8
2016-12-23T06:02:30.847Z,5.8
2016-12-23T06:03:36.865Z,5.8
2016-12-23T06:04:42.878Z,5.8
2016-12-23T06:05:48.901Z,5.7
2016-12-23T06:06:54.933Z,5.7
2016-12-23T06:08:00.949Z,5.8
2016-12-23T06:09:06.964Z,5.8
2016-12-23T06:10:12.975Z,5.8
2016-12-23T06:11:18.998Z,5.7
2016-12-23T06:12:25.024Z,5.7
2016-12-23T06:13:31.047Z,5.8
2016-12-23T06:14:37.055Z,5.9
2016-12-23T06:15:43.082Z,5.9
2016-12-23T06:16:49.104Z,5.8
2016-12-23T06:17:55.128Z,5.8
2016-12-23T06:19:01.143Z,5.9
2016-12-23T06:20:07.161Z,5.9
2016-12-23T06:21:13.175Z,5.8
2016-12-23T06:22:19.189Z,5.9
2016-12-23T06:23:25.217Z,5.9
2016-12-23T06:24:31.245Z,5.9
2016-12-23T06:25:37.260Z,5.9
2016-12-23T06:26:43.281Z,5.9
2016-12-23T06:27:49.314Z,6
2016-12-23T06:28:55.331Z,5.9
2016-12-23T06:30:01.345Z,6
2016-12-23T06:31:07.359Z,5.9
2016-12-23T06:32:13.389Z,5.9
2016-12-23T06:33:19.405Z,5.8
2016-12-23T06:34:25.417Z,5.9
2016-12-23T06:35:31.448Z,5.9
2016-12-23T06:36:37.471Z,5.9
2016-12-23T06:37:43.489Z,5.9
2016-12-23T06:38:49.503Z,5.9
2016-12-23T06:39:55.531Z,5.9
2016-12-23T06:41:00.447Z,5.9
2016-12-23T06:42:06.466Z,5.9
2016-12-23T06:43:12.478Z,5.9
2016-12-23T06:44:18.502Z,5.9
2016-12-23T06:45:24.523Z,6
2016-12-23T06:46:30.537Z,5.9
2016-12-23T06:47:36.559Z,5.9
2016-12-23T06:48:42.595Z,5.9
2016-12-23T06:49:48.609Z,5.9
2016-12-23T06:50:54.627Z,5.9
2016-12-23T06:52:00.654Z,6
2016-12-23T06:53:06.666Z,6
2016-12-23T06:54:12.688Z,5.9
2016-12-23T06:55:18.711Z,5.9
2016-12-23T06:56:24.742Z,5.9
2016-12-23T06:57:30.759Z,5.9
2016-12-23T06:58:36.779Z,6
2016-12-23T06:59:42.805Z,5.8
2016-12-23T07:00:48.822Z,5.9
2016-12-23T07:01:54.839Z,5.9
2016-12-23T07:03:00.859Z,5.9
2016-12-23T07:04:06.890Z,5.9
2016-12-23T07:05:12.915Z,5.9
2016-12-23T07:06:18.933Z,5.9
2016-12-23T07:07:24.949Z,6
2016-12-23T07:08:30.969Z,6
2016-12-23T07:09:36.993Z,5.9
2016-12-23T07:10:43.013Z,5.9
2016-12-23T07:11:49.031Z,5.9
2016-12-23T07:12:55.052Z,6
2016-12-23T07:14:01.078Z,5.9
2016-12-23T07:15:07.095Z,5.9
2016-12-23T07:16:13.118Z,5.9
2016-12-23T07:17:19.137Z,6
2016-12-23T07:18:25.160Z,6.1
2016-12-23T07:19:31.181Z,6.1
2016-12-23T07:20:37.203Z,6.1
2016-12-23T07:21:43.218Z,6
2016-12-23T07:22:49.238Z,6
2016-12-23T07:23:55.271Z,6
2016-12-23T07:25:00.545Z,6
2016-12-23T07:26:06.566Z,6
2016-12-23T07:27:12.584Z,6
2016-12-23T07:28:18.603Z,5.9
2016-12-23T07:29:24.627Z,5.9
2016-12-23T07:30:30.646Z,6
2016-12-23T07:31:36.664Z,5.9
2016-12-23T07:32:42.679Z,6
2016-12-23T07:33:48.701Z,6
2016-12-23T07:34:54.729Z,6
2016-12-23T07:36:00.751Z,6
2016-12-23T07:37:06.765Z,6
2016-12-23T07:38:12.788Z,5.9
2016-12-23T07:39:18.805Z,5.9
2016-12-23T07:40:24.824Z,5.9
2016-12-23T07:41:30.845Z,6
2016-12-23T07:42:36.870Z,6.1
2016-12-23T07:43:42.893Z,6.1
2016-12-23T07:44:48.915Z,6.1
2016-12-23T07:45:54.942Z,6.2
2016-12-23T07:47:00.962Z,6.1
2016-12-23T07:48:06.981Z,6.2
2016-12-23T07:49:13.004Z,6.2
2016-12-23T07:50:19.024Z,6.2
2016-12-23T07:51:25.055Z,6
2016-12-23T07:52:31.074Z,6
2016-12-23T07:53:37.098Z,6.1
2016-12-23T07:54:43.113Z,6.1
2016-12-23T07:55:49.144Z,6.1
2016-12-23T07:56:55.155Z,6.1
2016-12-23T07:58:01.170Z,6.1
2016-12-23T07:59:07.189Z,6
2016-12-23T08:00:13.216Z,6.1
2016-12-23T08:01:19.233Z,6.1
2016-12-23T08:02:25.259Z,6.2
2016-12-23T08:03:31.279Z,6.3
2016-12-23T08:04:37.308Z,6.3
2016-12-23T08:05:43.324Z,6.3
2016-12-23T08:06:49.342Z,6.3
2016-12-23T08:07:55.373Z,6.4
2016-12-23T08:09:01.392Z,6.3
2016-12-23T08:10:07.410Z,6.3
2016-12-23T08:11:13.455Z,6.2
2016-12-23T08:12:19.458Z,6.2
2016-12-23T08:13:25.481Z,6.3
2016-12-23T08:14:31.527Z,6.3
2016-12-23T08:15:37.513Z,6.3
2016-12-23T08:16:43.532Z,6.4
2016-12-23T08:17:49.555Z,6.4
2016-12-23T08:18:55.576Z,6.4
2016-12-23T08:20:01.605Z,6.4
2016-12-23T08:21:07.616Z,6.2
2016-12-23T08:22:13.633Z,6.2
2016-12-23T08:23:19.658Z,6.3
2016-12-23T08:24:25.674Z,6.4
2016-12-23T08:25:31.703Z,6.3
2016-12-23T08:26:37.713Z,6.4
2016-12-23T08:27:43.731Z,6.3
2016-12-23T08:28:49.753Z,6.4
2016-12-23T08:29:55.778Z,6.3
2016-12-23T08:31:01.795Z,6.3
2016-12-23T08:32:07.819Z,6.3
2016-12-23T08:33:13.835Z,6.4
2016-12-23T08:34:19.847Z,6.4
2016-12-23T08:35:25.869Z,6.4
2016-12-23T08:36:31.895Z,6.3
2016-12-23T08:37:37.904Z,6.3
2016-12-23T08:38:43.934Z,6.4
2016-12-23T08:39:49.958Z,6.3
2016-12-23T08:40:55.992Z,6.3
2016-12-23T08:42:02.004Z,6.3
2016-12-23T08:43:08.028Z,6.4
2016-12-23T08:44:14.046Z,6.3
2016-12-23T08:45:20.066Z,6.3
2016-12-23T08:46:26.088Z,6.4
2016-12-23T08:47:32.117Z,6.3
2016-12-23T08:48:38.134Z,6.2
2016-12-23T08:49:44.158Z,6.2
2016-12-23T08:50:50.201Z,6.3
2016-12-23T08:51:56.209Z,6.4
2016-12-23T08:53:02.236Z,6.3
2016-12-23T08:54:08.245Z,6.3
2016-12-23T08:55:14.270Z,6.3
2016-12-23T08:56:20.293Z,6.3
2016-12-23T08:57:26.326Z,6.3
2016-12-23T08:58:32.337Z,6.4
2016-12-23T08:59:38.363Z,6.4
2016-12-23T09:00:44.384Z,6.4
2016-12-23T09:01:50.399Z,6.4
2016-12-23T09:02:56.419Z,6.3
2016-12-23T09:04:02.445Z,6.4
2016-12-23T09:05:08.471Z,6.4
2016-12-23T09:06:14.487Z,6.4
2016-12-23T09:07:20.513Z,6.3
2016-12-23T09:08:26.543Z,6.3
2016-12-23T09:09:32.569Z,6.3
2016-12-23T09:10:38.594Z,6.3
2016-12-23T09:11:44.619Z,6.3
2016-12-23T09:12:50.640Z,6.3
2016-12-23T09:13:56.667Z,6.4
2016-12-23T09:15:02.688Z,6.4
2016-12-23T09:16:08.717Z,6.4
2016-12-23T09:17:14.739Z,6.4
2016-12-23T09:18:20.763Z,6.3
2016-12-23T09:19:26.783Z,6.4
2016-12-23T09:20:32.799Z,6.6
2016-12-23T09:21:38.821Z,6.5
2016-12-23T09:22:44.852Z,6.6
2016-12-23T09:23:50.869Z,6.5
2016-12-23T09:24:56.965Z,6.5
2016-12-23T09:26:02.952Z,6.5
2016-12-23T09:27:08.981Z,6.6
2016-12-23T09:28:14.997Z,6.6
2016-12-23T09:29:21.023Z,6.6
2016-12-23T09:30:27.043Z,6.4
2016-12-23T09:31:33.060Z,6.5
2016-12-23T09:32:39.083Z,6.6
2016-12-23T09:33:45.102Z,6.5
2016-12-23T09:34:51.123Z,6.5
2016-12-23T09:35:57.144Z,6.4
2016-12-23T09:37:03.175Z,6.4
2016-12-23T09:38:09.193Z,6.4
2016-12-23T09:39:15.215Z,6.4
2016-12-23T09:40:21.233Z,6.3
2016-12-23T09:41:27.257Z,6.4
2016-12-23T09:42:33.279Z,6.6
2016-12-23T09:43:39.292Z,6.6
2016-12-23T09:44:45.309Z,6.7
2016-12-23T09:45:51.334Z,6.7
2016-12-23T09:46:57.357Z,6.6
2016-12-23T09:48:03.378Z,6.6
2016-12-23T09:49:09.401Z,6.6
2016-12-23T09:50:15.425Z,6.6
2016-12-23T09:51:21.445Z,6.6
2016-12-23T09:52:27.469Z,6.6
2016-12-23T09:53:33.489Z,6.7
2016-12-23T09:54:39.515Z,6.7
2016-12-23T09:55:45.533Z,6.7
2016-12-23T09:56:51.551Z,6.7
2016-12-23T09:57:57.567Z,6.6
2016-12-23T09:59:03.681Z,6.7
2016-12-23T10:00:09.632Z,6.7
2016-12-23T10:01:15.650Z,6.7
2016-12-23T10:02:21.670Z,6.7
2016-12-23T10:03:27.695Z,6.6
2016-12-23T10:04:33.716Z,6.7
2016-12-23T10:05:39.728Z,6.6
2016-12-23T10:06:45.764Z,6.7
2016-12-23T10:07:51.786Z,6.7
2016-12-23T10:08:57.808Z,6.6
2016-12-23T10:10:03.822Z,6.6
2016-12-23T10:11:09.853Z,6.6
2016-12-23T10:12:15.871Z,6.6
2016-12-23T10:13:21.895Z,6.7
2016-12-23T10:14:27.906Z,6.6
2016-12-23T10:15:33.938Z,6.7
2016-12-23T10:16:39.958Z,6.7
2016-12-23T10:17:45.979Z,6.8
2016-12-23T10:18:51.995Z,6.9
2016-12-23T10:19:58.022Z,6.9
2016-12-23T10:21:04.041Z,6.9
2016-12-23T10:22:10.059Z,7
2016-12-23T10:23:16.082Z,7
2016-12-23T10:24:22.098Z,7
2016-12-23T10:25:28.120Z,7
2016-12-23T10:26:34.135Z,7
2016-12-23T10:27:40.165Z,7
2016-12-23T10:28:46.190Z,7
2016-12-23T10:29:52.197Z,6.8
2016-12-23T10:30:58.218Z,6.8
2016-12-23T10:32:04.243Z,6.7
2016-12-23T10:33:10.266Z,6.8
2016-12-23T10:34:16.277Z,6.8
2016-12-23T10:35:22.308Z,6.8
2016-12-23T10:36:28.329Z,6.9
2016-12-23T10:37:34.356Z,6.8
2016-12-23T10:38:40.368Z,6.8
2016-12-23T10:39:46.392Z,6.8
2016-12-23T10:40:52.409Z,6.9
2016-12-23T10:41:58.444Z,6.8
2016-12-23T10:43:04.450Z,6.6
2016-12-23T10:44:10.480Z,6.7
2016-12-23T10:45:16.495Z,6.9
2016-12-23T10:46:22.514Z,6.9
2016-12-23T10:47:28.537Z,6.9
2016-12-23T10:48:34.552Z,6.9
2016-12-23T10:49:40.572Z,6.9
2016-12-23T10:50:46.592Z,7
2016-12-23T10:51:52.611Z,6.8
2016-12-23T10:52:58.633Z,6.8
2016-12-23T10:54:04.658Z,6.8
2016-12-23T10:55:10.684Z,6.9
2016-12-23T10:56:16.705Z,6.6
2016-12-23T10:57:22.727Z,6.7
2016-12-23T10:58:28.749Z,6.7
2016-12-23T10:59:34.766Z,6.7
2016-12-23T11:00:40.788Z,6.8
2016-12-23T11:01:46.812Z,6.7
2016-12-23T11:02:52.835Z,6.8
2016-12-23T11:03:58.851Z,6.8
2016-12-23T11:05:04.869Z,6.7
2016-12-23T11:06:10.903Z,6.8
2016-12-23T11:07:16.917Z,6.9
2016-12-23T11:08:22.940Z,7
2016-12-23T11:09:28.957Z,7
2016-12-23T11:10:34.982Z,7
2016-12-23T11:11:41.008Z,7
2016-12-23T11:12:47.026Z,7.1
2016-12-23T11:13:53.050Z,7
2016-12-23T11:14:59.072Z,7
2016-12-23T11:16:05.095Z,6.9
2016-12-23T11:17:11.115Z,6.8
2016-12-23T11:18:17.142Z,6.9
2016-12-23T11:19:23.165Z,7
2016-12-23T11:20:29.186Z,7
2016-12-23T11:21:35.211Z,7
2016-12-23T11:22:41.228Z,7
2016-12-23T11:23:47.249Z,6.9
2016-12-23T11:24:53.266Z,6.9
2016-12-23T11:25:59.292Z,6.8
2016-12-23T11:27:05.312Z,6.9
2016-12-23T11:28:11.330Z,6.8
2016-12-23T11:29:17.360Z,6.8
2016-12-23T11:30:23.385Z,6.8
2016-12-23T11:31:29.403Z,6.9
2016-12-23T11:32:35.422Z,7
2016-12-23T11:33:41.446Z,7
2016-12-23T11:34:47.465Z,7
2016-12-23T11:35:53.483Z,7
2016-12-23T11:36:59.498Z,6.9
2016-12-23T11:38:05.521Z,6.8
2016-12-23T11:39:11.538Z,6.8
2016-12-23T11:40:17.558Z,6.9
2016-12-23T11:41:23.576Z,7
2016-12-23T11:42:29.597Z,6.9
2016-12-23T11:43:35.615Z,7
2016-12-23T11:44:41.632Z,7.1
2016-12-23T11:45:47.655Z,7.1
2016-12-23T11:46:52.927Z,7.2
2016-12-23T11:47:58.958Z,7.1
2016-12-23T11:49:04.983Z,7.1
2016-12-23T11:50:11.003Z,7.2
2016-12-23T11:51:17.030Z,6.9
2016-12-23T11:52:23.050Z,6.9
2016-12-23T11:53:29.067Z,7
2016-12-23T11:54:35.086Z,6.9
2016-12-23T11:55:41.112Z,6.9
2016-12-23T11:56:47.125Z,6.9
2016-12-23T11:57:53.150Z,6.7
2016-12-23T11:58:59.177Z,6.8
2016-12-23T12:00:05.205Z,6.8
2016-12-23T12:01:11.218Z,6.9
2016-12-23T12:02:17.245Z,6.9
2016-12-23T12:03:23.269Z,6.9
2016-12-23T12:04:29.284Z,6.8
2016-12-23T12:05:35.305Z,7
2016-12-23T12:06:41.317Z,7.1
2016-12-23T12:07:47.345Z,7
2016-12-23T12:08:53.370Z,6.9
2016-12-23T12:09:59.387Z,6.8
2016-12-23T12:11:05.401Z,6.8
2016-12-23T12:12:11.425Z,6.8
2016-12-23T12:13:17.443Z,6.9
2016-12-23T12:14:23.459Z,6.9
2016-12-23T12:15:29.485Z,7
2016-12-23T12:16:35.515Z,7
2016-12-23T12:17:41.525Z,6.8
2016-12-23T12:18:47.547Z,7
2016-12-23T12:19:53.567Z,7.1
2016-12-23T12:20:59.580Z,7.1
2016-12-23T12:22:05.595Z,7.3
2016-12-23T12:23:11.611Z,7.3
2016-12-23T12:24:17.640Z,7.4
2016-12-23T12:25:23.659Z,7.2
2016-12-23T12:26:29.679Z,7.1
2016-12-23T12:27:35.696Z,7.1
2016-12-23T12:28:41.723Z,7
2016-12-23T12:29:47.746Z,6.9
2016-12-23T12:30:53.765Z,7
2016-12-23T12:31:59.781Z,6.9
2016-12-23T12:33:05.801Z,7
2016-12-23T12:34:11.830Z,7.1
2016-12-23T12:35:17.852Z,7.1
2016-12-23T12:36:23.874Z,7.2
2016-12-23T12:37:29.897Z,7.2
2016-12-23T12:38:35.915Z,6.9
2016-12-23T12:39:41.934Z,6.9
2016-12-23T12:40:47.954Z,6.9
2016-12-23T12:41:53.978Z,7
2016-12-23T12:42:59.996Z,7
2016-12-23T12:44:06.019Z,7
2016-12-23T12:45:12.043Z,7
2016-12-23T12:46:18.066Z,6.9
2016-12-23T12:47:24.082Z,6.7
2016-12-23T12:48:30.112Z,6.9
2016-12-23T12:49:36.130Z,6.8
2016-12-23T12:50:42.157Z,6.9
2016-12-23T12:51:48.173Z,6.9
2016-12-23T12:52:54.197Z,6.9
2016-12-23T12:54:00.220Z,6.8
2016-12-23T12:55:06.237Z,6.9
2016-12-23T12:56:12.255Z,7
2016-12-23T12:57:18.279Z,6.8
2016-12-23T12:58:24.297Z,6.9
2016-12-23T12:59:30.329Z,6.8
2016-12-23T13:00:36.349Z,6.9
2016-12-23T13:01:42.369Z,6.9
2016-12-23T13:02:48.391Z,6.8
2016-12-23T13:03:54.407Z,6.9
2016-12-23T13:05:00.429Z,7
2016-12-23T13:06:06.453Z,6.9
2016-12-23T13:07:12.470Z,6.7
2016-12-23T13:08:18.497Z,6.8
2016-12-23T13:09:24.520Z,6.8
2016-12-23T13:10:30.542Z,6.8
2016-12-23T13:11:36.563Z,6.8
2016-12-23T13:12:42.583Z,6.8
2016-12-23T13:13:48.604Z,6.9
2016-12-23T13:14:54.628Z,6.8
2016-12-23T13:16:00.659Z,6.8
2016-12-23T13:17:06.678Z,6.8
2016-12-23T13:18:12.691Z,6.7
2016-12-23T13:19:18.713Z,6.8
2016-12-23T13:20:24.730Z,6.7
2016-12-23T13:21:30.750Z,6.7
2016-12-23T13:22:36.775Z,6.7
2016-12-23T13:23:42.790Z,6.7
2016-12-23T13:24:48.808Z,6.6
2016-12-23T13:25:54.833Z,6.6
2016-12-23T13:27:00.857Z,6.8
2016-12-23T13:28:06.885Z,6.9
2016-12-23T13:29:12.898Z,6.7
2016-12-23T13:30:18.922Z,6.7
2016-12-23T13:31:24.954Z,6.6
2016-12-23T13:32:30.977Z,6.5
2016-12-23T13:33:36.994Z,6.6
2016-12-23T13:34:43.009Z,6.5
2016-12-23T13:35:49.041Z,6.5
2016-12-23T13:36:55.065Z,6.6
2016-12-23T13:38:01.082Z,6.5
2016-12-23T13:39:07.103Z,6.5
2016-12-23T13:40:13.131Z,6.5
2016-12-23T13:41:19.152Z,6.5
2016-12-23T13:42:25.173Z,6.6
2016-12-23T13:43:31.198Z,6.6
2016-12-23T13:44:42.493Z,6.6
2016-12-23T13:45:47.638Z,6.7
2016-12-23T13:46:53.752Z,6.8
2016-12-23T13:47:59.763Z,6.5
2016-12-23T13:49:09.830Z,6.6
2016-12-23T13:50:27.093Z,6.7
2016-12-23T13:51:33.111Z,6.8
2016-12-23T13:52:39.567Z,6.8
2016-12-23T13:53:45.584Z,6.8
2016-12-23T13:54:51.622Z,6.8
2016-12-23T13:55:58.577Z,6.7
2016-12-23T13:57:03.228Z,6.6
2016-12-23T13:58:09.278Z,6.4
2016-12-23T13:59:15.317Z,6.3
2016-12-23T14:00:21.350Z,6.4
2016-12-23T14:01:27.363Z,6.4
2016-12-23T14:02:33.388Z,6.4
2016-12-23T14:03:39.408Z,6.4
2016-12-23T14:04:45.430Z,6.4
2016-12-23T14:05:51.478Z,6.5
2016-12-23T14:06:57.515Z,6.6
2016-12-23T14:08:03.543Z,6.5
2016-12-23T14:09:09.575Z,6.5
2016-12-23T14:10:15.579Z,6.6
2016-12-23T14:11:21.599Z,6.7
2016-12-23T14:12:27.623Z,6.7
2016-12-23T14:13:33.649Z,6.6
2016-12-23T14:14:39.671Z,6.7
2016-12-23T14:15:45.692Z,6.7
2016-12-23T14:16:51.729Z,6.7
2016-12-23T14:17:57.749Z,6.7
2016-12-23T14:19:03.764Z,6.6
2016-12-23T14:20:09.785Z,6.4
2016-12-23T14:21:15.813Z,6.5
2016-12-23T14:22:21.836Z,6.6
2016-12-23T14:23:27.852Z,6.4
2016-12-23T14:24:33.872Z,6.4
2016-12-23T14:25:39.907Z,6.4
2016-12-23T14:26:45.940Z,6.4
2016-12-23T14:27:51.959Z,6.3
2016-12-23T14:28:57.974Z,6.4
2016-12-23T14:30:04.029Z,6.4
2016-12-23T14:31:10.043Z,6.5
2016-12-23T14:32:16.082Z,6.6
2016-12-23T14:33:22.382Z,6.6
2016-12-23T14:34:28.437Z,6.5
2016-12-23T14:35:34.434Z,6.5
2016-12-23T14:36:40.450Z,6.5
2016-12-23T14:37:46.483Z,6.5
2016-12-23T14:38:52.507Z,6.5
2016-12-23T14:39:58.576Z,6.4
2016-12-23T14:41:04.609Z,6.4
2016-12-23T14:42:10.632Z,6.4
2016-12-23T14:43:16.656Z,6.4
2016-12-23T14:44:22.677Z,6.4
2016-12-23T14:45:28.707Z,6.5
2016-12-23T14:46:34.730Z,6.5
2016-12-23T14:47:40.753Z,6.4
2016-12-23T14:48:46.770Z,6.5
2016-12-23T14:49:52.805Z,6.5
2016-12-23T14:50:58.834Z,6.4
2016-12-23T14:52:04.848Z,6.4
2016-12-23T14:53:10.868Z,6.4
2016-12-23T14:54:16.890Z,6.4
2016-12-23T14:55:22.909Z,6.4
2016-12-23T14:56:28.934Z,6.5
2016-12-23T14:57:34.957Z,6.5
2016-12-23T14:58:41.012Z,6.5
2016-12-23T14:59:47.034Z,6.6
2016-12-23T15:00:53.046Z,6.6
2016-12-23T15:01:59.081Z,6.6
2016-12-23T15:03:05.110Z,6.7
2016-12-23T15:04:11.142Z,6.6
2016-12-23T15:05:17.152Z,6.6
2016-12-23T15:06:23.171Z,6.7
2016-12-23T15:07:29.200Z,6.6
2016-12-23T15:08:35.222Z,6.6
2016-12-23T15:09:41.252Z,6.6
2016-12-23T15:10:47.333Z,6.5
2016-12-23T15:11:53.281Z,6.5
2016-12-23T15:12:59.311Z,6.5
2016-12-23T15:14:05.341Z,6.6
2016-12-23T15:15:11.356Z,6.5
2016-12-23T15:16:17.383Z,6.4
2016-12-23T15:17:23.404Z,6.5
2016-12-23T15:18:29.421Z,6.6